sensor_id;sensor_type;location;lat;lon;timestamp;pressure;altitude;pressure_sealevel;temperature;humidity
4012;BME280;2020;48.682;9.024;2023-01-27T00:00:14;96596.00;;;-3.42;100.00
4012;BME280;2020;48.682;9.024;2023-01-27T00:02:41;96590.06;;;-3.42;100.00
4012;BME280;2020;48.682;9.024;2023-01-27T00:05:08;96590.97;;;-3.43;100.00
4012;BME280;2020;48.682;9.024;2023-01-27T00:07:34;96590.34;;;-3.48;100.00
4012;BME280;2020;48.682;9.024;2023-01-27T00:09:59;96586.75;;;-3.44;100.00
4012;BME280;2020;48.682;9.024;2023-01-27T00:12:25;96580.03;;;-3.45;100.00
4012;BME280;2020;48.682;9.024;2023-01-27T00:15:11;96584.97;;;-3.42;100.00
4012;BME280;2020;48.682;9.024;2023-01-27T00:17:37;96583.31;;;-3.43;100.00
4012;BME280;2020;48.682;9.024;2023-01-27T00:20:03;96581.41;;;-3.38;100.00
4012;BME280;2020;48.682;9.024;2023-01-27T00:22:30;96590.97;;;-3.43;100.00
4012;BME280;2020;48.682;9.024;2023-01-27T00:25:13;96579.13;;;-3.44;100.00
4012;BME280;2020;48.682;9.024;2023-01-27T00:27:38;96571.50;;;-3.44;100.00
4012;BME280;2020;48.682;9.024;2023-01-27T00:30:05;96575.00;;;-3.47;100.00
4012;BME280;2020;48.682;9.024;2023-01-27T00:32:31;96574.94;;;-3.45;100.00
4012;BME280;2020;48.682;9.024;2023-01-27T00:35:15;96568.06;;;-3.43;100.00
4012;BME280;2020;48.682;9.024;2023-01-27T00:37:41;96567.16;;;-3.42;100.00
4012;BME280;2020;48.682;9.024;2023-01-27T00:40:07;96568.75;;;-3.40;100.00
4012;BME280;2020;48.682;9.024;2023-01-27T00:42:32;96571.50;;;-3.44;100.00
4012;BME280;2020;48.682;9.024;2023-01-27T00:44:57;96573.28;;;-3.46;100.00
4012;BME280;2020;48.682;9.024;2023-01-27T00:47:41;96570.38;;;-3.58;100.00
4012;BME280;2020;48.682;9.024;2023-01-27T00:50:07;96580.16;;;-3.48;100.00
4012;BME280;2020;48.682;9.024;2023-01-27T00:52:32;96576.16;;;-3.54;100.00
4012;BME280;2020;48.682;9.024;2023-01-27T00:54:57;96574.56;;;-3.57;100.00
4012;BME280;2020;48.682;9.024;2023-01-27T00:57:22;96580.28;;;-3.52;100.00
4012;BME280;2020;48.682;9.024;2023-01-27T00:59:48;96581.81;;;-3.47;100.00
4012;BME280;2020;48.682;9.024;2023-01-27T01:02:13;96580.03;;;-3.45;100.00
4012;BME280;2020;48.682;9.024;2023-01-27T01:04:38;96583.41;;;-3.45;100.00
4012;BME280;2020;48.682;9.024;2023-01-27T01:07:03;96583.06;;;-3.37;100.00
4012;BME280;2020;48.682;9.024;2023-01-27T01:09:29;96587.22;;;-3.34;100.00
4012;BME280;2020;48.682;9.024;2023-01-27T01:11:54;96581.28;;;-3.35;100.00
4012;BME280;2020;48.682;9.024;2023-01-27T01:14:19;96586.75;;;-3.44;100.00
4012;BME280;2020;48.682;9.024;2023-01-27T01:16:44;96589.94;;;-3.39;100.00
4012;BME280;2020;48.682;9.024;2023-01-27T01:19:10;96589.25;;;-3.43;100.00
4012;BME280;2020;48.682;9.024;2023-01-27T01:21:36;96588.69;;;-3.49;100.00
4012;BME280;2020;48.682;9.024;2023-01-27T01:24:01;96584.44;;;-3.49;100.00
4012;BME280;2020;48.682;9.024;2023-01-27T01:26:27;96594.75;;;-3.52;100.00
4012;BME280;2020;48.682;9.024;2023-01-27T01:28:52;96586.03;;;-3.67;100.00
4012;BME280;2020;48.682;9.024;2023-01-27T01:31:18;96589.59;;;-3.71;100.00
4012;BME280;2020;48.682;9.024;2023-01-27T01:33:45;96586.41;;;-3.76;100.00
4012;BME280;2020;48.682;9.024;2023-01-27T01:36:16;96588.78;;;-3.72;100.00
4012;BME280;2020;48.682;9.024;2023-01-27T01:38:41;96575.16;;;-3.71;100.00
4012;BME280;2020;48.682;9.024;2023-01-27T01:41:10;96581.81;;;-3.68;100.00
4012;BME280;2020;48.682;9.024;2023-01-27T01:43:38;96587.56;;;-3.63;100.00
4012;BME280;2020;48.682;9.024;2023-01-27T01:46:04;96586.16;;;-3.70;100.00
4012;BME280;2020;48.682;9.024;2023-01-27T01:48:44;96583.22;;;-3.82;100.00
4012;BME280;2020;48.682;9.024;2023-01-27T01:51:22;96583.38;;;-3.85;100.00
4012;BME280;2020;48.682;9.024;2023-01-27T01:56:29;96577.88;;;-3.75;100.00
4012;BME280;2020;48.682;9.024;2023-01-27T01:58:57;96572.53;;;-3.69;100.00
4012;BME280;2020;48.682;9.024;2023-01-27T02:01:25;96573.44;;;-3.70;100.00
4012;BME280;2020;48.682;9.024;2023-01-27T02:03:55;96570.00;;;-3.69;100.00
4012;BME280;2020;48.682;9.024;2023-01-27T02:06:23;96569.09;;;-3.68;100.00
4012;BME280;2020;48.682;9.024;2023-01-27T02:08:50;96564.53;;;-3.80;100.00
4012;BME280;2020;48.682;9.024;2023-01-27T02:11:15;96559.06;;;-3.71;100.00
4012;BME280;2020;48.682;9.024;2023-01-27T02:13:41;96557.16;;;-3.66;100.00
4012;BME280;2020;48.682;9.024;2023-01-27T02:16:09;96567.81;;;-3.58;100.00
4012;BME280;2020;48.682;9.024;2023-01-27T02:18:36;96560.31;;;-3.61;100.00
4012;BME280;2020;48.682;9.024;2023-01-27T02:21:03;96562.19;;;-3.64;100.00
4012;BME280;2020;48.682;9.024;2023-01-27T02:23:52;96550.41;;;-3.67;100.00
4012;BME280;2020;48.682;9.024;2023-01-27T02:26:24;96560.31;;;-3.61;100.00
4012;BME280;2020;48.682;9.024;2023-01-27T02:28:57;96561.97;;;-3.60;100.00
4012;BME280;2020;48.682;9.024;2023-01-27T02:31:23;96553.72;;;-3.65;100.00
4012;BME280;2020;48.682;9.024;2023-01-27T02:33:49;96555.09;;;-3.58;100.00
4012;BME280;2020;48.682;9.024;2023-01-27T02:36:17;96550.41;;;-3.67;100.00
4012;BME280;2020;48.682;9.024;2023-01-27T02:38:51;96558.66;;;-3.62;100.00
4012;BME280;2020;48.682;9.024;2023-01-27T02:43:51;96548.75;;;-3.68;100.00
4012;BME280;2020;48.682;9.024;2023-01-27T02:46:16;96554.56;;;-3.64;100.00
4012;BME280;2020;48.682;9.024;2023-01-27T02:48:42;96552.06;;;-3.66;100.00
4012;BME280;2020;48.682;9.024;2023-01-27T02:51:07;96554.69;;;-3.68;100.00
4012;BME280;2020;48.682;9.024;2023-01-27T02:53:33;96555.38;;;-3.64;100.00
4012;BME280;2020;48.682;9.024;2023-01-27T02:55:58;96549.59;;;-3.68;100.00
4012;BME280;2020;48.682;9.024;2023-01-27T02:58:23;96553.97;;;-3.71;100.00
4012;BME280;2020;48.682;9.024;2023-01-27T03:00:49;96560.44;;;-3.64;100.00
4012;BME280;2020;48.682;9.024;2023-01-27T03:03:14;96551.13;;;-3.63;100.00
4012;BME280;2020;48.682;9.024;2023-01-27T03:05:39;96550.16;;;-3.61;100.00
4012;BME280;2020;48.682;9.024;2023-01-27T03:08:05;96550.28;;;-3.64;100.00
4012;BME280;2020;48.682;9.024;2023-01-27T03:10:31;96553.03;;;-3.69;100.00
4012;BME280;2020;48.682;9.024;2023-01-27T03:12:56;96559.06;;;-3.71;100.00
4012;BME280;2020;48.682;9.024;2023-01-27T03:15:22;96553.72;;;-3.65;100.00
4012;BME280;2020;48.682;9.024;2023-01-27T03:18:07;96545.31;;;-3.67;100.00
4012;BME280;2020;48.682;9.024;2023-01-27T03:20:51;96551.94;;;-3.63;100.00
4012;BME280;2020;48.682;9.024;2023-01-27T03:23:17;96545.19;;;-3.64;100.00
4012;BME280;2020;48.682;9.024;2023-01-27T03:25:46;96544.78;;;-3.55;100.00
4012;BME280;2020;48.682;9.024;2023-01-27T03:28:12;96549.75;;;-3.52;100.00
4012;BME280;2020;48.682;9.024;2023-01-27T03:30:38;96549.88;;;-3.55;100.00
4012;BME280;2020;48.682;9.024;2023-01-27T03:33:04;96558.28;;;-3.53;100.00
4012;BME280;2020;48.682;9.024;2023-01-27T03:35:33;96554.16;;;-3.55;100.00
4012;BME280;2020;48.682;9.024;2023-01-27T03:38:11;96548.22;;;-3.56;100.00
4012;BME280;2020;48.682;9.024;2023-01-27T03:40:55;96549.88;;;-3.55;100.00
4012;BME280;2020;48.682;9.024;2023-01-27T03:43:39;96549.13;;;-3.57;100.00
4012;BME280;2020;48.682;9.024;2023-01-27T03:46:22;96558.28;;;-3.53;100.00
4012;BME280;2020;48.682;9.024;2023-01-27T03:48:49;96556.63;;;-3.54;100.00
4012;BME280;2020;48.682;9.024;2023-01-27T03:51:16;96558.16;;;-3.49;100.00
4012;BME280;2020;48.682;9.024;2023-01-27T03:53:41;96567.69;;;-3.55;100.00
4012;BME280;2020;48.682;9.024;2023-01-27T03:56:07;96569.34;;;-3.54;100.00
4012;BME280;2020;48.682;9.024;2023-01-27T03:58:34;96564.88;;;-3.48;100.00
4012;BME280;2020;48.682;9.024;2023-01-27T04:01:04;96556.63;;;-3.54;100.00
4012;BME280;2020;48.682;9.024;2023-01-27T04:03:33;96568.59;;;-3.56;100.00
4012;BME280;2020;48.682;9.024;2023-01-27T04:06:19;96561.72;;;-3.54;100.00
4012;BME280;2020;48.682;9.024;2023-01-27T04:09:05;96569.34;;;-3.54;100.00
4012;BME280;2020;48.682;9.024;2023-01-27T04:11:31;96572.03;;;-3.57;100.00
4012;BME280;2020;48.682;9.024;2023-01-27T04:14:15;96568.31;;;-3.49;100.00
4012;BME280;2020;48.682;9.024;2023-01-27T04:16:40;96563.38;;;-3.53;100.00
4012;BME280;2020;48.682;9.024;2023-01-27T04:19:08;96569.22;;;-3.50;100.00
4012;BME280;2020;48.682;9.024;2023-01-27T04:21:34;96569.97;;;-3.48;100.00
4012;BME280;2020;48.682;9.024;2023-01-27T04:23:59;96563.38;;;-3.53;100.00
4012;BME280;2020;48.682;9.024;2023-01-27T04:26:25;96566.81;;;-3.54;100.00
4012;BME280;2020;48.682;9.024;2023-01-27T04:28:57;96569.34;;;-3.54;100.00
4012;BME280;2020;48.682;9.024;2023-01-27T04:31:22;96575.59;;;-3.61;100.00
4012;BME280;2020;48.682;9.024;2023-01-27T04:33:47;96568.72;;;-3.59;100.00
4012;BME280;2020;48.682;9.024;2023-01-27T04:36:13;96577.88;;;-3.55;100.00
4012;BME280;2020;48.682;9.024;2023-01-27T04:38:39;96579.53;;;-3.54;100.00
4012;BME280;2020;48.682;9.024;2023-01-27T04:41:04;96587.41;;;-3.60;100.00
4012;BME280;2020;48.682;9.024;2023-01-27T04:43:30;96577.63;;;-3.69;100.00
4012;BME280;2020;48.682;9.024;2023-01-27T04:45:55;96584.38;;;-3.68;100.00
4012;BME280;2020;48.682;9.024;2023-01-27T04:48:20;96584.25;;;-3.65;100.00
4012;BME280;2020;48.682;9.024;2023-01-27T04:50:45;96578.00;;;-3.58;100.00
4012;BME280;2020;48.682;9.024;2023-01-27T04:53:11;96571.63;;;-3.47;100.00
4012;BME280;2020;48.682;9.024;2023-01-27T04:55:36;96571.63;;;-3.47;100.00
4012;BME280;2020;48.682;9.024;2023-01-27T04:58:03;96574.03;;;-3.44;100.00
4012;BME280;2020;48.682;9.024;2023-01-27T05:00:28;96564.00;;;-3.47;100.00
4012;BME280;2020;48.682;9.024;2023-01-27T05:02:53;96574.66;;;-3.39;100.00
4012;BME280;2020;48.682;9.024;2023-01-27T05:05:19;96571.50;;;-3.44;99.33
4012;BME280;2020;48.682;9.024;2023-01-27T05:07:44;96580.03;;;-3.45;99.57
4012;BME280;2020;48.682;9.024;2023-01-27T05:10:09;96578.50;;;-3.49;99.25
4012;BME280;2020;48.682;9.024;2023-01-27T05:12:35;96572.59;;;-3.50;99.30
4012;BME280;2020;48.682;9.024;2023-01-27T05:15:00;96561.56;;;-3.50;99.55
4012;BME280;2020;48.682;9.024;2023-01-27T05:17:30;96565.00;;;-3.52;100.00
4012;BME280;2020;48.682;9.024;2023-01-27T05:19:56;96571.75;;;-3.50;99.08
4012;BME280;2020;48.682;9.024;2023-01-27T05:22:21;96583.66;;;-3.51;99.65
4012;BME280;2020;48.682;9.024;2023-01-27T05:24:46;96578.75;;;-3.56;98.83
4012;BME280;2020;48.682;9.024;2023-01-27T05:27:11;96575.19;;;-3.52;99.80
4012;BME280;2020;48.682;9.024;2023-01-27T05:29:37;96582.69;;;-3.48;100.00
4012;BME280;2020;48.682;9.024;2023-01-27T05:32:02;96587.03;;;-3.50;100.00
4012;BME280;2020;48.682;9.024;2023-01-27T05:34:27;96581.19;;;-3.53;99.31
4012;BME280;2020;48.682;9.024;2023-01-27T05:36:52;96580.28;;;-3.52;99.70
4012;BME280;2020;48.682;9.024;2023-01-27T05:39:18;96579.28;;;-3.68;98.42
4012;BME280;2020;48.682;9.024;2023-01-27T05:41:43;96581.19;;;-3.73;99.19
4012;BME280;2020;48.682;9.024;2023-01-27T05:44:11;96591.38;;;-3.73;99.04
4012;BME280;2020;48.682;9.024;2023-01-27T05:46:38;96592.78;;;-3.66;99.87
4012;BME280;2020;48.682;9.024;2023-01-27T05:49:04;96600.53;;;-3.69;99.32
4012;BME280;2020;48.682;9.024;2023-01-27T05:51:32;96608.13;;;-3.68;100.00
4012;BME280;2020;48.682;9.024;2023-01-27T05:53:57;96609.94;;;-3.71;100.00
4012;BME280;2020;48.682;9.024;2023-01-27T05:56:23;96613.25;;;-3.69;100.00
4012;BME280;2020;48.682;9.024;2023-01-27T05:58:52;96621.38;;;-3.61;100.00
4012;BME280;2020;48.682;9.024;2023-01-27T06:01:21;96616.03;;;-3.55;100.00
4012;BME280;2020;48.682;9.024;2023-01-27T06:03:46;96611.78;;;-3.54;100.00
4012;BME280;2020;48.682;9.024;2023-01-27T06:06:14;96607.22;;;-3.67;99.36
4012;BME280;2020;48.682;9.024;2023-01-27T06:08:41;96602.63;;;-3.58;100.00
4012;BME280;2020;48.682;9.024;2023-01-27T06:11:06;96607.66;;;-3.57;100.00
4012;BME280;2020;48.682;9.024;2023-01-27T06:13:32;96611.09;;;-3.58;100.00
4012;BME280;2020;48.682;9.024;2023-01-27T06:16:04;96612.06;;;-3.60;100.00
4012;BME280;2020;48.682;9.024;2023-01-27T06:18:29;96605.22;;;-3.60;100.00
4012;BME280;2020;48.682;9.024;2023-01-27T06:20:59;96608.16;;;-3.69;100.00
4012;BME280;2020;48.682;9.024;2023-01-27T06:23:25;96609.94;;;-3.71;100.00
4012;BME280;2020;48.682;9.024;2023-01-27T06:25:52;96608.38;;;-3.74;100.00
4012;BME280;2020;48.682;9.024;2023-01-27T06:28:18;96610.78;;;-3.71;99.72
4012;BME280;2020;48.682;9.024;2023-01-27T06:30:44;96613.38;;;-3.72;99.87
4012;BME280;2020;48.682;9.024;2023-01-27T06:33:09;96608.66;;;-3.82;99.45
4012;BME280;2020;48.682;9.024;2023-01-27T06:35:37;96615.28;;;-3.77;100.00
4012;BME280;2020;48.682;9.024;2023-01-27T06:38:07;96608.28;;;-3.72;100.00
4012;BME280;2020;48.682;9.024;2023-01-27T06:40:33;96613.38;;;-3.72;100.00
4012;BME280;2020;48.682;9.024;2023-01-27T06:42:59;96619.88;;;-3.65;100.00
4012;BME280;2020;48.682;9.024;2023-01-27T06:45:25;96615.03;;;-3.71;100.00
4012;BME280;2020;48.682;9.024;2023-01-27T06:47:55;96630.94;;;-3.66;100.00
4012;BME280;2020;48.682;9.024;2023-01-27T06:50:21;96621.53;;;-3.64;100.00
4012;BME280;2020;48.682;9.024;2023-01-27T06:52:46;96625.34;;;-3.74;99.79
4012;BME280;2020;48.682;9.024;2023-01-27T06:55:12;96633.84;;;-3.75;100.00
4012;BME280;2020;48.682;9.024;2023-01-27T06:57:37;96632.06;;;-3.73;100.00
4012;BME280;2020;48.682;9.024;2023-01-27T07:00:03;96638.25;;;-3.79;100.00
4012;BME280;2020;48.682;9.024;2023-01-27T07:02:28;96645.25;;;-3.84;100.00
4012;BME280;2020;48.682;9.024;2023-01-27T07:04:54;96645.69;;;-3.74;100.00
4012;BME280;2020;48.682;9.024;2023-01-27T07:07:19;96651.88;;;-3.80;100.00
4012;BME280;2020;48.682;9.024;2023-01-27T07:09:44;96648.22;;;-3.74;100.00
4012;BME280;2020;48.682;9.024;2023-01-27T07:12:09;96656.75;;;-3.75;100.00
4012;BME280;2020;48.682;9.024;2023-01-27T07:14:35;96669.72;;;-3.82;100.00
4012;BME280;2020;48.682;9.024;2023-01-27T07:17:00;96672.38;;;-3.85;100.00
4012;BME280;2020;48.682;9.024;2023-01-27T07:19:25;96680.53;;;-3.76;100.00
4012;BME280;2020;48.682;9.024;2023-01-27T07:21:50;96676.09;;;-3.71;100.00
4012;BME280;2020;48.682;9.024;2023-01-27T07:24:16;96681.06;;;-3.68;100.00
4012;BME280;2020;48.682;9.024;2023-01-27T07:26:41;96681.56;;;-3.60;100.00
4012;BME280;2020;48.682;9.024;2023-01-27T07:29:08;96680.94;;;-3.65;100.00
4012;BME280;2020;48.682;9.024;2023-01-27T07:31:33;96679.91;;;-3.61;100.00
4012;BME280;2020;48.682;9.024;2023-01-27T07:33:58;96675.47;;;-3.56;100.00
4012;BME280;2020;48.682;9.024;2023-01-27T07:36:24;96692.25;;;-3.52;100.00
4012;BME280;2020;48.682;9.024;2023-01-27T07:38:49;96688.28;;;-3.57;100.00
4012;BME280;2020;48.682;9.024;2023-01-27T07:41:15;96687.44;;;-3.58;100.00
4012;BME280;2020;48.682;9.024;2023-01-27T07:43:40;96684.75;;;-3.55;100.00
4012;BME280;2020;48.682;9.024;2023-01-27T07:46:06;96681.97;;;-3.48;100.00
4012;BME280;2020;48.682;9.024;2023-01-27T07:48:31;96692.00;;;-3.45;100.00
4012;BME280;2020;48.682;9.024;2023-01-27T07:50:56;96687.75;;;-3.45;100.00
4012;BME280;2020;48.682;9.024;2023-01-27T07:53:21;96686.91;;;-3.45;100.00
4012;BME280;2020;48.682;9.024;2023-01-27T07:55:47;96693.78;;;-3.47;100.00
4012;BME280;2020;48.682;9.024;2023-01-27T07:58:12;96695.44;;;-3.46;100.00
4012;BME280;2020;48.682;9.024;2023-01-27T08:00:37;96698.88;;;-3.47;99.46
4012;BME280;2020;48.682;9.024;2023-01-27T08:03:03;96696.16;;;-3.43;99.72
4012;BME280;2020;48.682;9.024;2023-01-27T08:05:31;96696.84;;;-3.39;100.00
4012;BME280;2020;48.682;9.024;2023-01-27T08:07:56;96696.16;;;-3.43;100.00
4012;BME280;2020;48.682;9.024;2023-01-27T08:10:22;96706.00;;;-3.56;99.45
4012;BME280;2020;48.682;9.024;2023-01-27T08:12:48;96702.69;;;-3.58;99.80
4012;BME280;2020;48.682;9.024;2023-01-27T08:15:13;96706.91;;;-3.57;100.00
4012;BME280;2020;48.682;9.024;2023-01-27T08:17:39;96709.19;;;-3.50;100.00
4012;BME280;2020;48.682;9.024;2023-01-27T08:20:05;96704.22;;;-3.54;100.00
4012;BME280;2020;48.682;9.024;2023-01-27T08:22:30;96707.53;;;-3.52;100.00
4012;BME280;2020;48.682;9.024;2023-01-27T08:24:56;96700.78;;;-3.53;100.00
4012;BME280;2020;48.682;9.024;2023-01-27T08:27:22;96711.59;;;-3.47;100.00
4012;BME280;2020;48.682;9.024;2023-01-27T08:29:47;96709.69;;;-3.42;100.00
4012;BME280;2020;48.682;9.024;2023-01-27T08:32:13;96705.25;;;-3.58;98.32
4012;BME280;2020;48.682;9.024;2023-01-27T08:34:38;96710.41;;;-3.59;98.48
4012;BME280;2020;48.682;9.024;2023-01-27T08:37:04;96720.59;;;-3.59;98.83
4012;BME280;2020;48.682;9.024;2023-01-27T08:39:30;96719.75;;;-3.60;98.61
4012;BME280;2020;48.682;9.024;2023-01-27T08:41:56;96719.50;;;-3.54;100.00
4012;BME280;2020;48.682;9.024;2023-01-27T08:44:21;96724.22;;;-3.44;100.00
4012;BME280;2020;48.682;9.024;2023-01-27T08:46:46;96724.94;;;-3.41;100.00
4012;BME280;2020;48.682;9.024;2023-01-27T08:49:12;96730.81;;;-3.40;98.98
4012;BME280;2020;48.682;9.024;2023-01-27T08:51:40;96732.34;;;-3.36;99.18
4012;BME280;2020;48.682;9.024;2023-01-27T08:54:06;96733.25;;;-3.37;98.65
4012;BME280;2020;48.682;9.024;2023-01-27T08:56:32;96733.03;;;-3.31;98.94
4012;BME280;2020;48.682;9.024;2023-01-27T08:58:58;96729.81;;;-3.36;97.56
4012;BME280;2020;48.682;9.024;2023-01-27T09:01:23;96728.84;;;-3.54;96.41
4012;BME280;2020;48.682;9.024;2023-01-27T09:03:48;96723.28;;;-3.42;97.05
4012;BME280;2020;48.682;9.024;2023-01-27T09:06:15;96728.91;;;-3.35;97.73
4012;BME280;2020;48.682;9.024;2023-01-27T09:08:41;96737.44;;;-3.36;97.00
4012;BME280;2020;48.682;9.024;2023-01-27T09:11:12;96735.78;;;-3.37;97.67
4012;BME280;2020;48.682;9.024;2023-01-27T09:13:38;96733.78;;;-3.29;98.83
4012;BME280;2020;48.682;9.024;2023-01-27T09:16:03;96737.88;;;-3.25;98.66
4012;BME280;2020;48.682;9.024;2023-01-27T09:18:28;96732.00;;;-3.27;98.54
4012;BME280;2020;48.682;9.024;2023-01-27T09:20:54;96739.41;;;-3.20;98.84
4012;BME280;2020;48.682;9.024;2023-01-27T09:23:19;96741.94;;;-3.20;97.85
4012;BME280;2020;48.682;9.024;2023-01-27T09:25:44;96731.63;;;-3.17;98.09
4012;BME280;2020;48.682;9.024;2023-01-27T09:28:09;96719.78;;;-3.18;98.10
4012;BME280;2020;48.682;9.024;2023-01-27T09:30:42;96722.47;;;-3.21;97.16
4012;BME280;2020;48.682;9.024;2023-01-27T09:33:08;96733.66;;;-3.26;97.46
4012;BME280;2020;48.682;9.024;2023-01-27T09:35:41;96734.31;;;-3.20;98.61
4012;BME280;2020;48.682;9.024;2023-01-27T09:38:09;96728.69;;;-3.29;98.76
4012;BME280;2020;48.682;9.024;2023-01-27T09:40:45;96735.56;;;-3.31;98.40
4012;BME280;2020;48.682;9.024;2023-01-27T09:43:49;96735.56;;;-3.31;98.70
4012;BME280;2020;48.682;9.024;2023-01-27T09:46:34;96740.53;;;-3.28;98.45
4012;BME280;2020;48.682;9.024;2023-01-27T10:02:25;96744.44;;;-3.41;97.42
4012;BME280;2020;48.682;9.024;2023-01-27T10:05:23;96739.47;;;-3.44;97.41
4012;BME280;2020;48.682;9.024;2023-01-27T10:08:18;96742.53;;;-3.36;97.83
4012;BME280;2020;48.682;9.024;2023-01-27T10:13:40;96743.44;;;-3.37;96.04
4012;BME280;2020;48.682;9.024;2023-01-27T10:27:08;96738.50;;;-3.19;97.09
4012;BME280;2020;48.682;9.024;2023-01-27T10:29:47;96749.56;;;-3.20;95.71
4012;BME280;2020;48.682;9.024;2023-01-27T10:32:26;96741.94;;;-3.20;95.41
4012;BME280;2020;48.682;9.024;2023-01-27T10:38:03;96746.94;;;-3.19;95.09
4012;BME280;2020;48.682;9.024;2023-01-27T10:40:56;96745.50;;;-3.25;95.44
4012;BME280;2020;48.682;9.024;2023-01-27T10:43:41;96734.22;;;-3.19;96.58
4012;BME280;2020;48.682;9.024;2023-01-27T10:49:15;96745.38;;;-3.21;97.78
4012;BME280;2020;48.682;9.024;2023-01-27T10:52:15;96749.97;;;-3.30;97.50
4012;BME280;2020;48.682;9.024;2023-01-27T10:54:57;96748.31;;;-3.31;96.93
4012;BME280;2020;48.682;9.024;2023-01-27T11:00:16;96749.63;;;-3.22;98.45
4012;BME280;2020;48.682;9.024;2023-01-27T11:02:51;96753.78;;;-3.19;97.39
4012;BME280;2020;48.682;9.024;2023-01-27T11:05:33;96755.31;;;-3.15;97.70
4012;BME280;2020;48.682;9.024;2023-01-27T11:08:10;96750.22;;;-3.15;97.43
4012;BME280;2020;48.682;9.024;2023-01-27T11:10:40;96748.19;;;-3.07;98.67
4012;BME280;2020;48.682;9.024;2023-01-27T11:13:27;96750.50;;;-3.02;97.80
4012;BME280;2020;48.682;9.024;2023-01-27T11:15:55;96743.59;;;-2.99;98.22
4012;BME280;2020;48.682;9.024;2023-01-27T11:18:22;96741.16;;;-3.02;97.57
4012;BME280;2020;48.682;9.024;2023-01-27T11:20:52;96744.47;;;-3.00;98.61
4012;BME280;2020;48.682;9.024;2023-01-27T11:23:23;96743.09;;;-3.07;97.25
4012;BME280;2020;48.682;9.024;2023-01-27T11:26:01;96742.13;;;-3.04;97.60
4012;BME280;2020;48.682;9.024;2023-01-27T11:31:21;96743.81;;;-2.84;98.32
4012;BME280;2020;48.682;9.024;2023-01-27T11:34:23;96740.66;;;-2.89;96.62
4012;BME280;2020;48.682;9.024;2023-01-27T11:36:49;96743.97;;;-2.87;96.69
4012;BME280;2020;48.682;9.024;2023-01-27T11:39:15;96742.44;;;-2.91;96.98
4012;BME280;2020;48.682;9.024;2023-01-27T11:41:46;96734.78;;;-2.91;96.98
4012;BME280;2020;48.682;9.024;2023-01-27T11:44:18;96734.78;;;-2.91;97.11
4012;BME280;2020;48.682;9.024;2023-01-27T11:46:45;96735.47;;;-2.88;96.41
4012;BME280;2020;48.682;9.024;2023-01-27T11:49:14;96726.75;;;-2.82;96.33
4012;BME280;2020;48.682;9.024;2023-01-27T11:51:43;96729.94;;;-2.77;96.46
4012;BME280;2020;48.682;9.024;2023-01-27T11:54:18;96719.03;;;-2.81;96.86
4012;BME280;2020;48.682;9.024;2023-01-27T11:56:48;96719.16;;;-2.84;95.75
4012;BME280;2020;48.682;9.024;2023-01-27T11:59:18;96721.91;;;-2.88;95.66
4012;BME280;2020;48.682;9.024;2023-01-27T12:01:55;96704.84;;;-2.86;96.21
4012;BME280;2020;48.682;9.024;2023-01-27T12:04:32;96721.78;;;-2.85;94.56
4012;BME280;2020;48.682;9.024;2023-01-27T12:07:19;96720.00;;;-2.83;95.71
4012;BME280;2020;48.682;9.024;2023-01-27T12:09:47;96717.44;;;-2.83;96.25
4012;BME280;2020;48.682;9.024;2023-01-27T12:14:44;96713.00;;;-2.78;95.93
4012;BME280;2020;48.682;9.024;2023-01-27T12:17:22;96709.41;;;-2.74;96.11
4012;BME280;2020;48.682;9.024;2023-01-27T12:19:48;96705.06;;;-2.72;95.60
4012;BME280;2020;48.682;9.024;2023-01-27T12:22:31;96706.50;;;-2.66;96.24
4012;BME280;2020;48.682;9.024;2023-01-27T12:25:01;96711.56;;;-2.65;96.00
4012;BME280;2020;48.682;9.024;2023-01-27T12:27:29;96710.78;;;-2.67;95.94
4012;BME280;2020;48.682;9.024;2023-01-27T12:29:58;96702.38;;;-2.69;95.30
4012;BME280;2020;48.682;9.024;2023-01-27T12:32:36;96706.47;;;-2.65;95.93
4012;BME280;2020;48.682;9.024;2023-01-27T12:35:02;96703.84;;;-2.63;95.50
4012;BME280;2020;48.682;9.024;2023-01-27T12:37:31;96701.41;;;-2.66;95.30
4012;BME280;2020;48.682;9.024;2023-01-27T12:40:06;96700.59;;;-2.67;95.40
4012;BME280;2020;48.682;9.024;2023-01-27T12:42:42;96704.31;;;-2.74;95.41
4012;BME280;2020;48.682;9.024;2023-01-27T12:47:58;96705.97;;;-2.73;96.12
4012;BME280;2020;48.682;9.024;2023-01-27T12:50:34;96698.81;;;-2.65;95.23
4012;BME280;2020;48.682;9.024;2023-01-27T12:53:15;96709.00;;;-2.65;95.58
4012;BME280;2020;48.682;9.024;2023-01-27T12:59:09;96710.53;;;-2.60;95.91
4012;BME280;2020;48.682;9.024;2023-01-27T13:01:38;96704.25;;;-2.53;95.74
4012;BME280;2020;48.682;9.024;2023-01-27T13:04:18;96705.16;;;-2.54;95.24
4012;BME280;2020;48.682;9.024;2023-01-27T13:06:55;96700.47;;;-2.63;94.39
4012;BME280;2020;48.682;9.024;2023-01-27T13:12:01;96697.88;;;-2.62;95.48
4012;BME280;2020;48.682;9.024;2023-01-27T13:14:32;96695.38;;;-2.63;94.68
4012;BME280;2020;48.682;9.024;2023-01-27T13:16:59;96698.53;;;-2.58;95.56
4012;BME280;2020;48.682;9.024;2023-01-27T13:19:39;96710.13;;;-2.51;96.08
4012;BME280;2020;48.682;9.024;2023-01-27T13:22:14;96708.59;;;-2.55;95.04
4012;BME280;2020;48.682;9.024;2023-01-27T13:24:41;96710.38;;;-2.57;94.23
4012;BME280;2020;48.682;9.024;2023-01-27T13:27:11;96712.78;;;-2.54;94.66
4012;BME280;2020;48.682;9.024;2023-01-27T13:29:39;96705.44;;;-2.60;93.85
4012;BME280;2020;48.682;9.024;2023-01-27T13:32:20;96710.94;;;-2.70;94.71
4012;BME280;2020;48.682;9.024;2023-01-27T13:35:03;96707.34;;;-2.66;94.92
4012;BME280;2020;48.682;9.024;2023-01-27T13:37:33;96705.00;;;-2.70;95.76
4012;BME280;2020;48.682;9.024;2023-01-27T13:45:42;96704.75;;;-2.64;96.29
4012;BME280;2020;48.682;9.024;2023-01-27T13:51:06;96717.38;;;-2.82;96.88
4012;BME280;2020;48.682;9.024;2023-01-27T13:53:32;96727.38;;;-2.77;97.61
4012;BME280;2020;48.682;9.024;2023-01-27T13:56:23;96729.53;;;-2.68;97.53
4012;BME280;2020;48.682;9.024;2023-01-27T14:02:21;96729.53;;;-2.68;96.95
4012;BME280;2020;48.682;9.024;2023-01-27T14:07:42;96736.69;;;-2.76;97.85
4012;BME280;2020;48.682;9.024;2023-01-27T14:13:02;96738.06;;;-2.69;98.27
4012;BME280;2020;48.682;9.024;2023-01-27T14:15:44;96741.38;;;-2.67;98.68
4012;BME280;2020;48.682;9.024;2023-01-27T14:18:29;96746.59;;;-2.70;98.30
4012;BME280;2020;48.682;9.024;2023-01-27T14:24:32;96739.84;;;-2.71;98.80
4012;BME280;2020;48.682;9.024;2023-01-27T14:27:01;96750.44;;;-2.80;98.43
4012;BME280;2020;48.682;9.024;2023-01-27T14:33:15;96748.91;;;-2.84;99.44
4012;BME280;2020;48.682;9.024;2023-01-27T14:35:49;96755.53;;;-2.80;99.28
4012;BME280;2020;48.682;9.024;2023-01-27T14:38:32;96752.78;;;-2.75;99.24
4012;BME280;2020;48.682;9.024;2023-01-27T14:41:15;96752.09;;;-2.79;99.41
4012;BME280;2020;48.682;9.024;2023-01-27T14:43:54;96751.97;;;-2.76;99.23
4012;BME280;2020;48.682;9.024;2023-01-27T14:49:48;96759.25;;;-2.87;98.94